createdAt,value
2022-12-13T00:00:00.000Z,16.56
2022-12-13T00:15:00.000Z,19.28
2022-12-13T00:30:00.000Z,15.84
2022-12-13T00:45:00.000Z,14.86
2022-12-13T01:00:00.000Z,14.91
2022-12-13T01:15:00.000Z,15.92
2022-12-13T01:30:00.000Z,17.39
2022-12-13T01:45:00.000Z,16.01
2022-12-13T02:00:00.000Z,16.05
2022-12-13T02:15:00.000Z,15.07
2022-12-13T02:30:00.000Z,14.46
2022-12-13T02:45:00.000Z,14.51
2022-12-13T03:00:00.000Z,14.41
2022-12-13T03:15:00.000Z,13.9
2022-12-13T03:30:00.000Z,12.76
2022-12-13T03:45:00.000Z,14.68
2022-12-13T04:00:00.000Z,16.13
2022-12-13T04:15:00.000Z,16.25
2022-12-13T04:30:00.000Z,15.55
2022-12-13T04:45:00.000Z,17.08
2022-12-13T05:00:00.000Z,20.59
2022-12-13T05:15:00.000Z,17.02
2022-12-13T05:30:00.000Z,22.99
2022-12-13T06:00:00.000Z,27
2022-12-13T06:00:00.000Z,27.45
2022-12-13T06:15:00.000Z,27.26
2022-12-13T06:30:00.000Z,34.04
2022-12-13T06:45:00.000Z,33.81
2022-12-13T07:00:00.000Z,30.68
2022-12-13T07:15:00.000Z,30.25
2022-12-13T07:30:00.000Z,29.51
2022-12-13T07:45:00.000Z,29.6
2022-12-13T08:00:00.000Z,36.71
2022-12-13T08:15:00.000Z,32.06
2022-12-13T08:30:00.000Z,30.04
2022-12-13T08:45:00.000Z,30.14
2022-12-13T09:00:00.000Z,28.73
2022-12-13T09:15:00.000Z,30.11
2022-12-13T09:30:00.000Z,32.54
2022-12-13T09:45:00.000Z,25.96
2022-12-13T10:00:00.000Z,19.18
2022-12-13T10:15:00.000Z,15.16
2022-12-13T10:30:00.000Z,15.87
2022-12-13T10:45:00.000Z,27.2
2022-12-13T11:00:00.000Z,26.04
2022-12-13T11:15:00.000Z,22.88
2022-12-13T11:30:00.000Z,22.52
2022-12-13T11:45:00.000Z,16.66
2022-12-13T12:00:00.000Z,16.18
2022-12-13T12:15:00.000Z,17.42
2022-12-13T12:30:00.000Z,18.02
2022-12-13T12:45:00.000Z,17.72
2022-12-13T13:00:00.000Z,19.01
2022-12-13T13:15:00.000Z,18.46
2022-12-13T13:30:00.000Z,18.8
2022-12-13T13:45:00.000Z,18.07
2022-12-13T14:00:00.000Z,24.93
2022-12-13T14:15:00.000Z,18.65
2022-12-13T14:30:00.000Z,20.44
2022-12-13T14:45:00.000Z,19
2022-12-13T15:00:00.000Z,22.48
2022-12-13T15:15:00.000Z,26.39
2022-12-13T15:30:00.000Z,30.42
2022-12-13T15:45:00.000Z,26.4
2022-12-13T16:00:00.000Z,28.59
2022-12-13T16:15:00.000Z,32.19
2022-12-13T16:30:00.000Z,38.53
2022-12-13T16:45:00.000Z,35.89
2022-12-13T17:00:00.000Z,28.79
2022-12-13T17:15:00.000Z,29.47
2022-12-13T17:30:00.000Z,33.4
2022-12-13T17:45:00.000Z,34.51
2022-12-13T18:00:00.000Z,37.14
2022-12-13T18:15:00.000Z,38.67
2022-12-13T18:30:00.000Z,38.48
2022-12-13T18:45:00.000Z,36.38
2022-12-13T19:00:00.000Z,40.49
2022-12-13T19:15:00.000Z,45.64
2022-12-13T19:30:00.000Z,41.8
2022-12-13T19:45:00.000Z,45.84
2022-12-13T20:00:00.000Z,44
2022-12-13T20:15:00.000Z,45.55
2022-12-13T20:30:00.000Z,43.74
2022-12-13T20:45:00.000Z,43.12
2022-12-13T21:00:00.000Z,46.36
2022-12-13T21:15:00.000Z,53.37
2022-12-13T21:30:00.000Z,49.62
2022-12-13T21:45:00.000Z,37.56
2022-12-13T22:00:00.000Z,38.08
2022-12-13T22:15:00.000Z,38.35
2022-12-13T22:30:00.000Z,31.66
2022-12-13T22:45:00.000Z,30.99
2022-12-13T23:00:00.000Z,35.49
2022-12-13T23:15:00.000Z,33.42
2022-12-13T23:30:00.000Z,34.87
2022-12-13T23:45:00.000Z,34.14
